sensor_id;sensor_type;location;lat;lon;timestamp;temperature;humidity
39045;DHT22;52192;52.002;5.956;2022-09-09T00:04:37;18.40;75.80
39045;DHT22;52192;52.002;5.956;2022-09-09T00:15:23;18.40;75.90
39045;DHT22;52192;52.002;5.956;2022-09-09T00:18:24;18.50;75.90
39045;DHT22;52192;52.002;5.956;2022-09-09T00:21:11;18.60;75.70
39045;DHT22;52192;52.002;5.956;2022-09-09T00:23:39;18.60;75.60
39045;DHT22;52192;52.002;5.956;2022-09-09T00:28:55;18.50;75.60
39045;DHT22;52192;52.002;5.956;2022-09-09T00:31:27;18.50;75.70
39045;DHT22;52192;52.002;5.956;2022-09-09T00:33:55;18.50;75.70
39045;DHT22;52192;52.002;5.956;2022-09-09T00:36:25;18.50;75.70
39045;DHT22;52192;52.002;5.956;2022-09-09T00:39:00;18.50;75.80
39045;DHT22;52192;52.002;5.956;2022-09-09T00:55:16;18.50;76.30
39045;DHT22;52192;52.002;5.956;2022-09-09T00:57:44;18.50;76.20
39045;DHT22;52192;52.002;5.956;2022-09-09T01:02:53;18.50;76.40
39045;DHT22;52192;52.002;5.956;2022-09-09T01:07:51;18.40;76.40
39045;DHT22;52192;52.002;5.956;2022-09-09T01:13:20;18.40;76.30
39045;DHT22;52192;52.002;5.956;2022-09-09T01:15:48;18.30;76.30
39045;DHT22;52192;52.002;5.956;2022-09-09T01:18:17;18.30;76.30
39045;DHT22;52192;52.002;5.956;2022-09-09T01:26:32;18.20;76.30
39045;DHT22;52192;52.002;5.956;2022-09-09T01:28:59;18.20;76.40
39045;DHT22;52192;52.002;5.956;2022-09-09T01:31:57;18.20;76.40
39045;DHT22;52192;52.002;5.956;2022-09-09T01:34:26;18.20;76.20
39045;DHT22;52192;52.002;5.956;2022-09-09T01:37:01;18.10;76.40
39045;DHT22;52192;52.002;5.956;2022-09-09T01:39:27;18.00;76.30
39045;DHT22;52192;52.002;5.956;2022-09-09T01:41:55;18.00;76.90
39045;DHT22;52192;52.002;5.956;2022-09-09T01:44:21;18.00;76.20
39045;DHT22;52192;52.002;5.956;2022-09-09T01:46:47;18.00;76.20
39045;DHT22;52192;52.002;5.956;2022-09-09T01:49:13;18.00;76.30
39045;DHT22;52192;52.002;5.956;2022-09-09T01:51:41;17.90;76.20
39045;DHT22;52192;52.002;5.956;2022-09-09T01:54:08;17.90;76.20
39045;DHT22;52192;52.002;5.956;2022-09-09T01:57:06;17.90;76.20
39045;DHT22;52192;52.002;5.956;2022-09-09T02:08:03;17.80;76.10
39045;DHT22;52192;52.002;5.956;2022-09-09T02:13:19;17.80;76.00
39045;DHT22;52192;52.002;5.956;2022-09-09T02:18:46;17.70;75.90
39045;DHT22;52192;52.002;5.956;2022-09-09T02:21:13;17.60;76.00
39045;DHT22;52192;52.002;5.956;2022-09-09T02:23:41;17.60;76.10
39045;DHT22;52192;52.002;5.956;2022-09-09T02:26:10;17.60;76.10
39045;DHT22;52192;52.002;5.956;2022-09-09T02:28:39;17.60;76.10
39045;DHT22;52192;52.002;5.956;2022-09-09T02:31:06;17.60;76.00
39045;DHT22;52192;52.002;5.956;2022-09-09T02:33:37;17.50;75.90
39045;DHT22;52192;52.002;5.956;2022-09-09T02:36:05;17.50;76.00
39045;DHT22;52192;52.002;5.956;2022-09-09T02:38:37;17.50;76.10
39045;DHT22;52192;52.002;5.956;2022-09-09T02:41:05;17.50;76.10
39045;DHT22;52192;52.002;5.956;2022-09-09T02:43:35;17.40;76.10
39045;DHT22;52192;52.002;5.956;2022-09-09T02:48:50;17.40;76.10
39045;DHT22;52192;52.002;5.956;2022-09-09T02:54:29;17.40;76.00
39045;DHT22;52192;52.002;5.956;2022-09-09T02:57:17;17.30;76.00
39045;DHT22;52192;52.002;5.956;2022-09-09T02:59:45;17.30;76.10
39045;DHT22;52192;52.002;5.956;2022-09-09T03:02:12;17.20;76.10
39045;DHT22;52192;52.002;5.956;2022-09-09T03:04:39;17.20;76.20
39045;DHT22;52192;52.002;5.956;2022-09-09T03:07:05;17.20;76.20
39045;DHT22;52192;52.002;5.956;2022-09-09T03:09:31;17.10;76.20
39045;DHT22;52192;52.002;5.956;2022-09-09T03:11:58;17.10;76.20
39045;DHT22;52192;52.002;5.956;2022-09-09T03:14:24;17.10;76.20
39045;DHT22;52192;52.002;5.956;2022-09-09T03:16:54;17.10;76.30
39045;DHT22;52192;52.002;5.956;2022-09-09T03:19:20;17.10;76.20
39045;DHT22;52192;52.002;5.956;2022-09-09T03:21:47;17.10;76.20
39045;DHT22;52192;52.002;5.956;2022-09-09T03:24:13;17.00;76.20
39045;DHT22;52192;52.002;5.956;2022-09-09T03:26:40;17.00;76.20
39045;DHT22;52192;52.002;5.956;2022-09-09T03:29:06;17.10;76.20
39045;DHT22;52192;52.002;5.956;2022-09-09T03:31:33;17.00;76.20
39045;DHT22;52192;52.002;5.956;2022-09-09T03:33:59;17.00;76.30
39045;DHT22;52192;52.002;5.956;2022-09-09T03:36:26;17.00;76.30
39045;DHT22;52192;52.002;5.956;2022-09-09T03:38:52;17.00;76.30
39045;DHT22;52192;52.002;5.956;2022-09-09T03:41:20;17.00;76.30
39045;DHT22;52192;52.002;5.956;2022-09-09T03:43:46;17.00;76.30
39045;DHT22;52192;52.002;5.956;2022-09-09T03:46:12;17.00;76.40
39045;DHT22;52192;52.002;5.956;2022-09-09T03:48:37;17.00;76.40
39045;DHT22;52192;52.002;5.956;2022-09-09T03:51:03;17.00;76.50
39045;DHT22;52192;52.002;5.956;2022-09-09T03:53:30;17.00;76.50
39045;DHT22;52192;52.002;5.956;2022-09-09T03:55:57;17.00;76.60
39045;DHT22;52192;52.002;5.956;2022-09-09T03:58:25;17.00;76.60
39045;DHT22;52192;52.002;5.956;2022-09-09T04:00:55;17.00;76.60
39045;DHT22;52192;52.002;5.956;2022-09-09T04:03:22;17.00;76.60
39045;DHT22;52192;52.002;5.956;2022-09-09T04:05:53;17.00;76.70
39045;DHT22;52192;52.002;5.956;2022-09-09T04:08:20;17.00;76.70
39045;DHT22;52192;52.002;5.956;2022-09-09T04:10:47;17.00;76.80
39045;DHT22;52192;52.002;5.956;2022-09-09T04:13:14;17.10;76.90
39045;DHT22;52192;52.002;5.956;2022-09-09T04:15:40;17.10;77.70
39045;DHT22;52192;52.002;5.956;2022-09-09T04:18:06;17.10;77.10
39045;DHT22;52192;52.002;5.956;2022-09-09T04:20:32;17.10;77.10
39045;DHT22;52192;52.002;5.956;2022-09-09T04:22:58;17.10;77.10
39045;DHT22;52192;52.002;5.956;2022-09-09T04:25:24;17.20;77.30
39045;DHT22;52192;52.002;5.956;2022-09-09T04:27:54;17.20;77.40
39045;DHT22;52192;52.002;5.956;2022-09-09T04:30:20;17.20;77.40
39045;DHT22;52192;52.002;5.956;2022-09-09T04:32:46;17.20;77.50
39045;DHT22;52192;52.002;5.956;2022-09-09T04:35:12;17.20;77.50
39045;DHT22;52192;52.002;5.956;2022-09-09T04:37:38;17.20;77.50
39045;DHT22;52192;52.002;5.956;2022-09-09T04:40:04;17.20;77.50
39045;DHT22;52192;52.002;5.956;2022-09-09T04:42:30;17.30;77.60
39045;DHT22;52192;52.002;5.956;2022-09-09T04:44:55;17.30;77.60
39045;DHT22;52192;52.002;5.956;2022-09-09T04:47:22;17.30;77.70
39045;DHT22;52192;52.002;5.956;2022-09-09T04:49:47;17.20;77.70
39045;DHT22;52192;52.002;5.956;2022-09-09T04:52:13;17.30;77.80
39045;DHT22;52192;52.002;5.956;2022-09-09T04:54:38;17.30;77.90
39045;DHT22;52192;52.002;5.956;2022-09-09T04:57:04;17.30;77.90
39045;DHT22;52192;52.002;5.956;2022-09-09T04:59:30;17.30;78.00
39045;DHT22;52192;52.002;5.956;2022-09-09T05:01:56;17.30;77.90
39045;DHT22;52192;52.002;5.956;2022-09-09T05:04:22;17.30;78.00
39045;DHT22;52192;52.002;5.956;2022-09-09T05:06:47;17.30;78.00
39045;DHT22;52192;52.002;5.956;2022-09-09T05:09:13;17.40;78.00
39045;DHT22;52192;52.002;5.956;2022-09-09T05:11:39;17.40;78.10
39045;DHT22;52192;52.002;5.956;2022-09-09T05:14:05;17.40;78.00
39045;DHT22;52192;52.002;5.956;2022-09-09T05:16:31;17.40;78.00
39045;DHT22;52192;52.002;5.956;2022-09-09T05:18:57;17.40;78.10
39045;DHT22;52192;52.002;5.956;2022-09-09T05:21:24;17.40;78.10
39045;DHT22;52192;52.002;5.956;2022-09-09T05:23:52;17.50;78.10
39045;DHT22;52192;52.002;5.956;2022-09-09T05:26:21;17.50;78.10
39045;DHT22;52192;52.002;5.956;2022-09-09T05:28:51;17.50;78.80
39045;DHT22;52192;52.002;5.956;2022-09-09T05:31:18;17.50;78.40
39045;DHT22;52192;52.002;5.956;2022-09-09T05:33:45;17.50;78.30
39045;DHT22;52192;52.002;5.956;2022-09-09T05:36:16;17.50;78.50
39045;DHT22;52192;52.002;5.956;2022-09-09T05:38:42;17.50;78.40
39045;DHT22;52192;52.002;5.956;2022-09-09T05:41:09;17.50;78.30
39045;DHT22;52192;52.002;5.956;2022-09-09T05:43:37;17.60;78.50
39045;DHT22;52192;52.002;5.956;2022-09-09T05:46:11;17.60;78.40
39045;DHT22;52192;52.002;5.956;2022-09-09T05:48:42;17.60;78.40
39045;DHT22;52192;52.002;5.956;2022-09-09T05:51:16;17.70;78.50
39045;DHT22;52192;52.002;5.956;2022-09-09T05:53:43;17.70;78.60
39045;DHT22;52192;52.002;5.956;2022-09-09T05:56:11;17.70;78.50
39045;DHT22;52192;52.002;5.956;2022-09-09T05:58:38;17.70;78.50
39045;DHT22;52192;52.002;5.956;2022-09-09T06:01:13;17.70;78.60
39045;DHT22;52192;52.002;5.956;2022-09-09T06:03:40;17.80;78.60
39045;DHT22;52192;52.002;5.956;2022-09-09T06:06:17;17.80;78.50
39045;DHT22;52192;52.002;5.956;2022-09-09T06:08:44;17.80;78.60
39045;DHT22;52192;52.002;5.956;2022-09-09T06:11:14;17.70;78.90
39045;DHT22;52192;52.002;5.956;2022-09-09T06:13:40;17.70;79.10
39045;DHT22;52192;52.002;5.956;2022-09-09T06:16:15;17.70;79.10
39045;DHT22;52192;52.002;5.956;2022-09-09T06:18:42;17.80;79.10
39045;DHT22;52192;52.002;5.956;2022-09-09T06:21:27;17.90;79.00
39045;DHT22;52192;52.002;5.956;2022-09-09T06:23:54;17.90;78.80
39045;DHT22;52192;52.002;5.956;2022-09-09T06:26:23;17.90;79.10
39045;DHT22;52192;52.002;5.956;2022-09-09T06:28:51;18.00;78.90
39045;DHT22;52192;52.002;5.956;2022-09-09T06:31:19;18.00;78.90
39045;DHT22;52192;52.002;5.956;2022-09-09T06:33:50;18.00;78.90
39045;DHT22;52192;52.002;5.956;2022-09-09T06:36:18;18.00;78.80
39045;DHT22;52192;52.002;5.956;2022-09-09T06:38:45;18.10;79.00
39045;DHT22;52192;52.002;5.956;2022-09-09T06:41:13;18.00;79.20
39045;DHT22;52192;52.002;5.956;2022-09-09T06:43:39;18.00;79.40
39045;DHT22;52192;52.002;5.956;2022-09-09T06:46:14;18.00;79.60
39045;DHT22;52192;52.002;5.956;2022-09-09T06:48:40;18.00;79.50
39045;DHT22;52192;52.002;5.956;2022-09-09T06:51:15;18.00;79.60
39045;DHT22;52192;52.002;5.956;2022-09-09T06:53:42;18.00;79.60
39045;DHT22;52192;52.002;5.956;2022-09-09T06:56:30;18.00;79.60
39045;DHT22;52192;52.002;5.956;2022-09-09T06:58:57;18.10;79.40
39045;DHT22;52192;52.002;5.956;2022-09-09T07:01:31;18.10;79.80
39045;DHT22;52192;52.002;5.956;2022-09-09T07:03:59;18.10;79.70
39045;DHT22;52192;52.002;5.956;2022-09-09T07:06:31;18.10;79.60
39045;DHT22;52192;52.002;5.956;2022-09-09T07:08:59;18.20;79.50
39045;DHT22;52192;52.002;5.956;2022-09-09T07:11:29;18.20;79.90
39045;DHT22;52192;52.002;5.956;2022-09-09T07:13:56;18.30;79.40
39045;DHT22;52192;52.002;5.956;2022-09-09T07:16:23;18.40;79.40
39045;DHT22;52192;52.002;5.956;2022-09-09T07:18:53;18.40;79.50
39045;DHT22;52192;52.002;5.956;2022-09-09T07:21:23;18.50;79.30
39045;DHT22;52192;52.002;5.956;2022-09-09T07:23:52;18.50;79.20
39045;DHT22;52192;52.002;5.956;2022-09-09T07:26:20;18.50;78.90
39045;DHT22;52192;52.002;5.956;2022-09-09T07:28:46;18.60;78.90
39045;DHT22;52192;52.002;5.956;2022-09-09T07:31:24;18.50;78.90
39045;DHT22;52192;52.002;5.956;2022-09-09T07:33:50;18.60;78.90
39045;DHT22;52192;52.002;5.956;2022-09-09T07:36:25;18.60;79.40
39045;DHT22;52192;52.002;5.956;2022-09-09T07:38:53;18.60;78.80
39045;DHT22;52192;52.002;5.956;2022-09-09T07:41:22;18.60;78.80
39045;DHT22;52192;52.002;5.956;2022-09-09T07:43:49;18.70;78.70
39045;DHT22;52192;52.002;5.956;2022-09-09T07:46:18;18.70;78.50
39045;DHT22;52192;52.002;5.956;2022-09-09T07:48:55;18.80;78.50
39045;DHT22;52192;52.002;5.956;2022-09-09T07:51:32;18.90;78.50
39045;DHT22;52192;52.002;5.956;2022-09-09T07:54:01;19.00;78.30
39045;DHT22;52192;52.002;5.956;2022-09-09T07:56:31;19.20;78.30
39045;DHT22;52192;52.002;5.956;2022-09-09T07:58:57;19.30;77.70
39045;DHT22;52192;52.002;5.956;2022-09-09T08:01:31;19.20;77.20
39045;DHT22;52192;52.002;5.956;2022-09-09T08:04:02;19.20;77.50
39045;DHT22;52192;52.002;5.956;2022-09-09T08:06:31;19.10;77.40
39045;DHT22;52192;52.002;5.956;2022-09-09T08:08:58;19.00;77.50
39045;DHT22;52192;52.002;5.956;2022-09-09T08:11:26;19.00;77.80
39045;DHT22;52192;52.002;5.956;2022-09-09T08:13:53;19.00;77.90
39045;DHT22;52192;52.002;5.956;2022-09-09T08:16:24;19.00;77.70
39045;DHT22;52192;52.002;5.956;2022-09-09T08:18:51;19.00;77.70
39045;DHT22;52192;52.002;5.956;2022-09-09T08:21:23;19.00;77.80
39045;DHT22;52192;52.002;5.956;2022-09-09T08:23:51;18.90;77.40
39045;DHT22;52192;52.002;5.956;2022-09-09T08:26:23;18.80;77.70
39045;DHT22;52192;52.002;5.956;2022-09-09T08:28:50;18.90;77.60
39045;DHT22;52192;52.002;5.956;2022-09-09T08:31:26;18.90;77.60
39045;DHT22;52192;52.002;5.956;2022-09-09T08:33:53;18.90;77.60
39045;DHT22;52192;52.002;5.956;2022-09-09T08:36:22;18.90;77.60
39045;DHT22;52192;52.002;5.956;2022-09-09T08:38:49;18.90;77.40
39045;DHT22;52192;52.002;5.956;2022-09-09T08:41:42;18.90;77.00
39045;DHT22;52192;52.002;5.956;2022-09-09T09:01:00;18.80;76.80
39045;DHT22;52192;52.002;5.956;2022-09-09T09:11:50;18.90;76.10
39045;DHT22;52192;52.002;5.956;2022-09-09T09:14:20;19.00;76.20
39045;DHT22;52192;52.002;5.956;2022-09-09T09:16:56;18.90;76.10
39045;DHT22;52192;52.002;5.956;2022-09-09T09:19:23;18.90;76.40
39045;DHT22;52192;52.002;5.956;2022-09-09T09:21:59;18.90;76.40
39045;DHT22;52192;52.002;5.956;2022-09-09T09:24:55;19.00;76.40
39045;DHT22;52192;52.002;5.956;2022-09-09T09:27:31;19.00;75.90
39045;DHT22;52192;52.002;5.956;2022-09-09T09:29:59;19.00;75.60
39045;DHT22;52192;52.002;5.956;2022-09-09T09:32:30;19.00;75.50
39045;DHT22;52192;52.002;5.956;2022-09-09T09:34:57;19.10;74.70
39045;DHT22;52192;52.002;5.956;2022-09-09T09:37:32;19.10;75.00
39045;DHT22;52192;52.002;5.956;2022-09-09T09:42:35;19.20;74.60
39045;DHT22;52192;52.002;5.956;2022-09-09T09:45:13;19.20;74.60
39045;DHT22;52192;52.002;5.956;2022-09-09T09:47:40;19.20;74.50
39045;DHT22;52192;52.002;5.956;2022-09-09T09:50:17;19.20;74.50
39045;DHT22;52192;52.002;5.956;2022-09-09T09:52:54;19.30;74.30
39045;DHT22;52192;52.002;5.956;2022-09-09T09:55:21;19.30;73.60
39045;DHT22;52192;52.002;5.956;2022-09-09T09:57:48;19.40;73.70
39045;DHT22;52192;52.002;5.956;2022-09-09T10:00:19;19.50;73.50
39045;DHT22;52192;52.002;5.956;2022-09-09T10:02:46;19.60;73.30
39045;DHT22;52192;52.002;5.956;2022-09-09T10:05:16;19.70;73.40
39045;DHT22;52192;52.002;5.956;2022-09-09T10:07:43;19.90;73.40
39045;DHT22;52192;52.002;5.956;2022-09-09T10:10:26;19.90;72.80
39045;DHT22;52192;52.002;5.956;2022-09-09T10:13:18;19.90;72.80
39045;DHT22;52192;52.002;5.956;2022-09-09T10:24:22;19.80;72.50
39045;DHT22;52192;52.002;5.956;2022-09-09T10:35:21;19.70;72.00
39045;DHT22;52192;52.002;5.956;2022-09-09T10:38:25;19.70;72.10
39045;DHT22;52192;52.002;5.956;2022-09-09T10:55:13;19.60;71.70
39045;DHT22;52192;52.002;5.956;2022-09-09T10:57:50;19.60;72.20
39045;DHT22;52192;52.002;5.956;2022-09-09T11:00:31;19.60;72.30
39045;DHT22;52192;52.002;5.956;2022-09-09T11:03:02;19.70;72.20
39045;DHT22;52192;52.002;5.956;2022-09-09T11:05:44;19.70;71.90
39045;DHT22;52192;52.002;5.956;2022-09-09T11:08:20;19.80;71.70
39045;DHT22;52192;52.002;5.956;2022-09-09T11:11:13;19.80;71.40
39045;DHT22;52192;52.002;5.956;2022-09-09T11:13:47;19.90;71.60
39045;DHT22;52192;52.002;5.956;2022-09-09T11:19:03;19.90;70.90
39045;DHT22;52192;52.002;5.956;2022-09-09T11:21:38;20.00;70.60
39045;DHT22;52192;52.002;5.956;2022-09-09T11:24:52;20.00;70.60
39045;DHT22;52192;52.002;5.956;2022-09-09T11:27:00;19.90;70.80
39045;DHT22;52192;52.002;5.956;2022-09-09T11:42:41;20.10;72.80
39045;DHT22;52192;52.002;5.956;2022-09-09T11:45:21;20.20;73.10
39045;DHT22;52192;52.002;5.956;2022-09-09T11:47:59;20.20;73.10
39045;DHT22;52192;52.002;5.956;2022-09-09T11:52:50;20.10;72.90
39045;DHT22;52192;52.002;5.956;2022-09-09T11:58:24;20.10;73.00
39045;DHT22;52192;52.002;5.956;2022-09-09T12:00:49;20.20;73.10
39045;DHT22;52192;52.002;5.956;2022-09-09T12:06:31;20.20;73.40
39045;DHT22;52192;52.002;5.956;2022-09-09T12:19:40;20.20;75.00
39045;DHT22;52192;52.002;5.956;2022-09-09T12:28:24;20.50;74.20
39045;DHT22;52192;52.002;5.956;2022-09-09T12:31:25;20.30;74.10
39045;DHT22;52192;52.002;5.956;2022-09-09T12:33:51;20.20;74.70
39045;DHT22;52192;52.002;5.956;2022-09-09T12:36:24;20.00;75.00
39045;DHT22;52192;52.002;5.956;2022-09-09T12:38:56;19.90;75.00
39045;DHT22;52192;52.002;5.956;2022-09-09T12:41:27;20.00;75.20
39045;DHT22;52192;52.002;5.956;2022-09-09T12:44:08;20.10;75.00
39045;DHT22;52192;52.002;5.956;2022-09-09T12:46:41;20.30;74.60
39045;DHT22;52192;52.002;5.956;2022-09-09T12:49:35;20.40;73.90
39045;DHT22;52192;52.002;5.956;2022-09-09T12:54:45;20.50;73.50
39045;DHT22;52192;52.002;5.956;2022-09-09T12:57:17;20.50;73.20
39045;DHT22;52192;52.002;5.956;2022-09-09T12:59:44;20.50;73.70
39045;DHT22;52192;52.002;5.956;2022-09-09T13:02:27;20.50;72.80
39045;DHT22;52192;52.002;5.956;2022-09-09T13:05:08;20.40;72.70
39045;DHT22;52192;52.002;5.956;2022-09-09T13:07:38;20.30;73.10
39045;DHT22;52192;52.002;5.956;2022-09-09T13:10:04;20.30;73.80
39045;DHT22;52192;52.002;5.956;2022-09-09T13:12:30;20.40;73.20
39045;DHT22;52192;52.002;5.956;2022-09-09T13:14:56;20.40;73.20
39045;DHT22;52192;52.002;5.956;2022-09-09T13:17:26;20.40;73.20
39045;DHT22;52192;52.002;5.956;2022-09-09T13:19:54;20.30;73.60
39045;DHT22;52192;52.002;5.956;2022-09-09T13:22:36;20.30;74.20
39045;DHT22;52192;52.002;5.956;2022-09-09T13:25:24;20.40;74.40
39045;DHT22;52192;52.002;5.956;2022-09-09T13:28:02;20.40;74.20
39045;DHT22;52192;52.002;5.956;2022-09-09T13:30:36;20.40;74.50
39045;DHT22;52192;52.002;5.956;2022-09-09T13:33:06;20.50;74.70
39045;DHT22;52192;52.002;5.956;2022-09-09T13:38:16;20.90;73.80
39045;DHT22;52192;52.002;5.956;2022-09-09T13:41:04;20.80;73.30
39045;DHT22;52192;52.002;5.956;2022-09-09T13:43:34;20.70;73.20
39045;DHT22;52192;52.002;5.956;2022-09-09T13:46:20;20.60;73.70
39045;DHT22;52192;52.002;5.956;2022-09-09T13:51:42;20.70;73.20
39045;DHT22;52192;52.002;5.956;2022-09-09T13:54:11;20.70;72.70
39045;DHT22;52192;52.002;5.956;2022-09-09T13:56:39;20.70;72.20
39045;DHT22;52192;52.002;5.956;2022-09-09T13:59:09;20.70;72.30
39045;DHT22;52192;52.002;5.956;2022-09-09T14:01:36;20.60;72.40
39045;DHT22;52192;52.002;5.956;2022-09-09T14:04:03;20.50;72.50
39045;DHT22;52192;52.002;5.956;2022-09-09T14:06:31;20.40;72.60
39045;DHT22;52192;52.002;5.956;2022-09-09T14:08:57;20.30;72.90
39045;DHT22;52192;52.002;5.956;2022-09-09T14:11:24;20.20;73.00
39045;DHT22;52192;52.002;5.956;2022-09-09T14:13:49;20.20;73.20
39045;DHT22;52192;52.002;5.956;2022-09-09T14:16:16;20.20;73.50
39045;DHT22;52192;52.002;5.956;2022-09-09T14:18:43;20.30;73.80
39045;DHT22;52192;52.002;5.956;2022-09-09T14:21:09;20.50;73.70
39045;DHT22;52192;52.002;5.956;2022-09-09T14:23:35;20.60;73.30
39045;DHT22;52192;52.002;5.956;2022-09-09T14:26:01;20.70;72.40
39045;DHT22;52192;52.002;5.956;2022-09-09T14:28:27;20.60;72.50
39045;DHT22;52192;52.002;5.956;2022-09-09T14:30:54;20.60;72.70
39045;DHT22;52192;52.002;5.956;2022-09-09T14:33:19;20.50;72.60
39045;DHT22;52192;52.002;5.956;2022-09-09T14:35:45;20.40;72.70
39045;DHT22;52192;52.002;5.956;2022-09-09T14:38:11;20.40;73.00
39045;DHT22;52192;52.002;5.956;2022-09-09T14:40:37;20.30;72.80
39045;DHT22;52192;52.002;5.956;2022-09-09T14:43:04;20.30;73.10
39045;DHT22;52192;52.002;5.956;2022-09-09T14:45:31;20.20;73.20
39045;DHT22;52192;52.002;5.956;2022-09-09T14:47:57;20.20;73.20
39045;DHT22;52192;52.002;5.956;2022-09-09T14:50:23;20.20;73.20
39045;DHT22;52192;52.002;5.956;2022-09-09T14:52:49;20.30;73.40
39045;DHT22;52192;52.002;5.956;2022-09-09T14:55:16;20.40;73.20
39045;DHT22;52192;52.002;5.956;2022-09-09T14:57:42;20.50;73.00
39045;DHT22;52192;52.002;5.956;2022-09-09T15:00:09;20.60;72.90
39045;DHT22;52192;52.002;5.956;2022-09-09T15:02:35;20.60;72.60
39045;DHT22;52192;52.002;5.956;2022-09-09T15:05:01;20.70;72.70
39045;DHT22;52192;52.002;5.956;2022-09-09T15:07:27;20.80;72.50
39045;DHT22;52192;52.002;5.956;2022-09-09T15:09:57;20.90;72.20
39045;DHT22;52192;52.002;5.956;2022-09-09T15:12:23;21.00;72.10
39045;DHT22;52192;52.002;5.956;2022-09-09T15:14:49;21.00;72.00
39045;DHT22;52192;52.002;5.956;2022-09-09T15:17:16;21.10;72.00
39045;DHT22;52192;52.002;5.956;2022-09-09T15:19:42;21.00;71.90
39045;DHT22;52192;52.002;5.956;2022-09-09T15:22:08;21.00;72.00
39045;DHT22;52192;52.002;5.956;2022-09-09T15:24:34;20.90;72.50
39045;DHT22;52192;52.002;5.956;2022-09-09T15:27:01;20.90;72.20
39045;DHT22;52192;52.002;5.956;2022-09-09T15:29:27;20.90;72.30
39045;DHT22;52192;52.002;5.956;2022-09-09T15:31:54;20.80;72.30
39045;DHT22;52192;52.002;5.956;2022-09-09T15:34:23;20.80;72.40
39045;DHT22;52192;52.002;5.956;2022-09-09T15:37:01;20.80;72.50
39045;DHT22;52192;52.002;5.956;2022-09-09T15:39:27;20.70;72.80
39045;DHT22;52192;52.002;5.956;2022-09-09T15:41:52;20.60;73.10
39045;DHT22;52192;52.002;5.956;2022-09-09T15:44:18;20.60;73.50
39045;DHT22;52192;52.002;5.956;2022-09-09T15:46:46;20.60;73.90
39045;DHT22;52192;52.002;5.956;2022-09-09T15:49:25;20.50;74.00
39045;DHT22;52192;52.002;5.956;2022-09-09T15:51:54;20.50;74.10
39045;DHT22;52192;52.002;5.956;2022-09-09T15:54:22;20.40;74.20
39045;DHT22;52192;52.002;5.956;2022-09-09T15:56:57;20.30;74.30
39045;DHT22;52192;52.002;5.956;2022-09-09T15:59:25;20.30;74.60
39045;DHT22;52192;52.002;5.956;2022-09-09T16:01:51;20.30;74.90
39045;DHT22;52192;52.002;5.956;2022-09-09T16:04:18;20.30;75.10
39045;DHT22;52192;52.002;5.956;2022-09-09T16:06:55;20.20;75.20
39045;DHT22;52192;52.002;5.956;2022-09-09T16:09:22;20.20;75.30
39045;DHT22;52192;52.002;5.956;2022-09-09T16:11:48;20.20;75.20
39045;DHT22;52192;52.002;5.956;2022-09-09T16:14:14;20.20;75.50
39045;DHT22;52192;52.002;5.956;2022-09-09T16:16:43;19.90;75.50
39045;DHT22;52192;52.002;5.956;2022-09-09T16:19:11;19.60;75.90
39045;DHT22;52192;52.002;5.956;2022-09-09T16:21:43;19.30;76.10
39045;DHT22;52192;52.002;5.956;2022-09-09T16:24:11;19.20;76.10
39045;DHT22;52192;52.002;5.956;2022-09-09T16:26:39;19.10;76.40
39045;DHT22;52192;52.002;5.956;2022-09-09T16:29:05;19.10;76.70
39045;DHT22;52192;52.002;5.956;2022-09-09T16:31:31;19.10;76.70
39045;DHT22;52192;52.002;5.956;2022-09-09T16:33:59;19.20;76.90
39045;DHT22;52192;52.002;5.956;2022-09-09T16:36:27;19.20;76.80
39045;DHT22;52192;52.002;5.956;2022-09-09T16:38:57;19.20;77.00
39045;DHT22;52192;52.002;5.956;2022-09-09T16:41:24;19.30;77.20
39045;DHT22;52192;52.002;5.956;2022-09-09T16:43:57;19.30;77.30
39045;DHT22;52192;52.002;5.956;2022-09-09T16:46:24;19.30;77.50
39045;DHT22;52192;52.002;5.956;2022-09-09T16:48:51;19.40;77.70
39045;DHT22;52192;52.002;5.956;2022-09-09T16:51:21;19.40;77.80
39045;DHT22;52192;52.002;5.956;2022-09-09T16:53:49;19.40;77.90
39045;DHT22;52192;52.002;5.956;2022-09-09T16:56:21;19.40;78.10
39045;DHT22;52192;52.002;5.956;2022-09-09T16:58:52;19.40;78.30
39045;DHT22;52192;52.002;5.956;2022-09-09T17:01:21;19.40;78.40
39045;DHT22;52192;52.002;5.956;2022-09-09T17:03:47;19.40;78.60
39045;DHT22;52192;52.002;5.956;2022-09-09T17:06:15;19.40;78.60
39045;DHT22;52192;52.002;5.956;2022-09-09T17:08:41;19.30;78.50
39045;DHT22;52192;52.002;5.956;2022-09-09T17:11:14;19.40;78.70
39045;DHT22;52192;52.002;5.956;2022-09-09T17:13:41;19.40;78.70
39045;DHT22;52192;52.002;5.956;2022-09-09T17:16:07;19.40;78.80
39045;DHT22;52192;52.002;5.956;2022-09-09T17:18:34;19.40;78.70
39045;DHT22;52192;52.002;5.956;2022-09-09T17:21:07;19.40;78.70
39045;DHT22;52192;52.002;5.956;2022-09-09T17:23:34;19.40;78.60
39045;DHT22;52192;52.002;5.956;2022-09-09T17:26:07;19.40;78.60
39045;DHT22;52192;52.002;5.956;2022-09-09T17:28:34;19.40;78.70
39045;DHT22;52192;52.002;5.956;2022-09-09T17:31:00;19.40;78.70
39045;DHT22;52192;52.002;5.956;2022-09-09T17:33:29;19.40;78.90
39045;DHT22;52192;52.002;5.956;2022-09-09T17:35:59;19.40;78.90
39045;DHT22;52192;52.002;5.956;2022-09-09T17:38:26;19.30;79.00
39045;DHT22;52192;52.002;5.956;2022-09-09T17:41:15;19.30;79.10
39045;DHT22;52192;52.002;5.956;2022-09-09T17:43:41;19.30;79.10
39045;DHT22;52192;52.002;5.956;2022-09-09T17:48:37;19.20;79.20
39045;DHT22;52192;52.002;5.956;2022-09-09T17:51:14;19.20;79.30
39045;DHT22;52192;52.002;5.956;2022-09-09T17:53:46;19.20;79.20
39045;DHT22;52192;52.002;5.956;2022-09-09T17:56:15;19.10;79.20
39045;DHT22;52192;52.002;5.956;2022-09-09T17:58:41;19.00;79.20
39045;DHT22;52192;52.002;5.956;2022-09-09T18:01:30;19.00;79.30
39045;DHT22;52192;52.002;5.956;2022-09-09T18:03:59;19.00;79.20
39045;DHT22;52192;52.002;5.956;2022-09-09T18:06:34;18.90;79.30
39045;DHT22;52192;52.002;5.956;2022-09-09T18:09:05;18.90;79.30
39045;DHT22;52192;52.002;5.956;2022-09-09T18:11:37;18.90;79.40
39045;DHT22;52192;52.002;5.956;2022-09-09T18:14:07;18.80;79.40
39045;DHT22;52192;52.002;5.956;2022-09-09T18:16:36;18.80;79.50
39045;DHT22;52192;52.002;5.956;2022-09-09T18:19:03;18.90;79.60
39045;DHT22;52192;52.002;5.956;2022-09-09T18:21:31;18.80;79.50
39045;DHT22;52192;52.002;5.956;2022-09-09T18:23:59;18.80;79.60
39045;DHT22;52192;52.002;5.956;2022-09-09T18:26:26;18.80;79.50
39045;DHT22;52192;52.002;5.956;2022-09-09T18:28:57;18.80;79.60
39045;DHT22;52192;52.002;5.956;2022-09-09T18:31:25;18.80;79.50
39045;DHT22;52192;52.002;5.956;2022-09-09T18:33:55;18.80;79.50
39045;DHT22;52192;52.002;5.956;2022-09-09T18:36:24;18.80;79.60
39045;DHT22;52192;52.002;5.956;2022-09-09T18:38:50;18.80;79.50
39045;DHT22;52192;52.002;5.956;2022-09-09T18:41:19;18.80;79.50